createdAt,value
2024-02-23T00:02:21.262Z,6.87
2024-02-23T00:04:48.174Z,6.30
2024-02-23T00:07:15.077Z,6.97
2024-02-23T00:09:41.900Z,6.93
2024-02-23T00:12:10.049Z,6.20
2024-02-23T00:14:37.729Z,5.70
2024-02-23T00:17:04.832Z,9.37
2024-02-23T00:19:32.634Z,6.37
2024-02-23T00:22:00.566Z,7.77
2024-02-23T00:24:27.938Z,8.17
2024-02-23T00:26:55.328Z,7.10
2024-02-23T00:29:22.918Z,6.57
2024-02-23T00:31:50.124Z,5.50
2024-02-23T00:34:17.943Z,6.70
2024-02-23T00:36:46.146Z,6.40
2024-02-23T00:39:13.379Z,5.00
2024-02-23T00:41:40.431Z,5.00
2024-02-23T00:44:07.686Z,5.03
2024-02-23T00:46:35.234Z,6.80
2024-02-23T00:49:02.297Z,4.87
2024-02-23T00:51:29.366Z,4.63
2024-02-23T00:53:56.314Z,4.20
2024-02-23T00:56:27.599Z,4.47
2024-02-23T00:59:00.141Z,10.90
2024-02-23T01:01:27.984Z,6.70
2024-02-23T01:03:55.394Z,9.30
2024-02-23T01:06:22.503Z,4.30
2024-02-23T01:08:49.419Z,4.63
2024-02-23T01:11:16.475Z,6.07
2024-02-23T01:13:43.490Z,7.80
2024-02-23T01:16:10.301Z,6.03
2024-02-23T01:18:37.522Z,4.20
2024-02-23T01:21:04.650Z,4.67
2024-02-23T01:23:31.553Z,4.40
2024-02-23T01:26:00.559Z,4.07
2024-02-23T01:28:27.492Z,4.40
2024-02-23T01:30:54.386Z,4.43
2024-02-23T01:33:21.303Z,4.80
2024-02-23T01:35:48.399Z,6.30
2024-02-23T01:38:20.298Z,5.40
2024-02-23T01:40:48.161Z,4.10
2024-02-23T01:43:15.309Z,4.70
2024-02-23T01:45:43.193Z,7.70
2024-02-23T01:48:10.117Z,4.70
2024-02-23T01:50:38.277Z,4.37
2024-02-23T01:53:05.794Z,15.77
2024-02-23T01:55:36.374Z,4.30
2024-02-23T01:58:08.604Z,4.87
2024-02-23T02:00:37.662Z,4.90
2024-02-23T02:03:09.703Z,4.90
2024-02-23T02:05:39.229Z,4.20
2024-02-23T02:08:07.314Z,3.60
2024-02-23T02:10:34.415Z,4.57
2024-02-23T02:13:08.353Z,6.43
2024-02-23T02:15:35.322Z,6.73
2024-02-23T02:18:02.203Z,5.23
2024-02-23T02:20:33.204Z,3.90
2024-02-23T02:23:00.814Z,12.90
2024-02-23T02:25:27.696Z,9.70
2024-02-23T02:27:54.554Z,3.43
2024-02-23T02:30:21.404Z,3.70
2024-02-23T02:32:48.480Z,4.23
2024-02-23T02:35:15.593Z,3.00
2024-02-23T02:37:42.760Z,4.33
2024-02-23T02:40:10.088Z,2.67
2024-02-23T02:42:37.040Z,6.30
2024-02-23T02:45:04.343Z,2.50
2024-02-23T02:47:31.530Z,3.30
2024-02-23T02:49:58.670Z,4.30
2024-02-23T02:52:25.650Z,3.13
2024-02-23T02:54:52.611Z,3.57
2024-02-23T02:57:19.520Z,3.33
2024-02-23T02:59:47.227Z,2.33
2024-02-23T03:02:14.556Z,2.43
2024-02-23T03:04:49.115Z,3.00
2024-02-23T03:07:17.172Z,2.93
2024-02-23T03:09:44.108Z,2.87
2024-02-23T03:12:12.203Z,4.70
2024-02-23T03:14:41.636Z,2.80
2024-02-23T03:17:10.900Z,4.30
2024-02-23T03:19:38.609Z,2.57
2024-02-23T03:22:06.141Z,2.53
2024-02-23T03:24:33.080Z,2.63
2024-02-23T03:27:00.108Z,5.60
2024-02-23T03:29:30.720Z,9.20
2024-02-23T03:31:57.974Z,5.60
2024-02-23T03:34:24.977Z,2.47
2024-02-23T03:36:51.895Z,2.73
2024-02-23T03:39:18.766Z,2.93
2024-02-23T03:41:45.601Z,2.77
2024-02-23T03:44:12.449Z,3.53
2024-02-23T03:46:39.371Z,2.50
2024-02-23T03:49:06.276Z,3.30
2024-02-23T03:51:36.150Z,5.70
2024-02-23T03:54:03.017Z,4.50
2024-02-23T03:56:29.990Z,2.43
2024-02-23T03:58:56.950Z,3.77
2024-02-23T04:01:23.927Z,2.50
2024-02-23T04:03:50.795Z,2.10
2024-02-23T04:06:18.748Z,3.03
2024-02-23T04:08:47.596Z,3.90
2024-02-23T04:11:15.210Z,3.10
2024-02-23T04:13:42.065Z,3.00
2024-02-23T04:16:08.923Z,3.27
2024-02-23T04:18:35.851Z,2.50
2024-02-23T04:21:02.699Z,3.20
2024-02-23T04:23:29.563Z,3.10
2024-02-23T04:25:56.506Z,2.97
2024-02-23T04:28:23.402Z,2.87
2024-02-23T04:30:50.464Z,2.70
2024-02-23T04:33:17.749Z,4.30
2024-02-23T04:35:45.307Z,2.53
2024-02-23T04:38:12.782Z,3.03
2024-02-23T04:40:39.649Z,2.57
2024-02-23T04:43:06.533Z,2.50
2024-02-23T04:45:33.346Z,4.37
2024-02-23T04:48:00.220Z,2.60
2024-02-23T04:50:27.098Z,3.10
2024-02-23T04:52:53.947Z,2.60
2024-02-23T04:55:20.831Z,4.17
2024-02-23T04:57:47.637Z,2.50
2024-02-23T05:00:14.741Z,2.77
2024-02-23T05:02:41.880Z,2.10
2024-02-23T05:05:09.059Z,3.73
2024-02-23T05:07:36.137Z,3.90
2024-02-23T05:10:03.164Z,6.90
2024-02-23T05:12:30.270Z,2.63
2024-02-23T05:14:57.144Z,2.50
2024-02-23T05:17:24.510Z,2.40
2024-02-23T05:19:52.319Z,2.60
2024-02-23T05:22:20.416Z,2.60
2024-02-23T05:24:47.300Z,2.10
2024-02-23T05:27:14.177Z,2.30
2024-02-23T05:29:41.055Z,2.13
2024-02-23T05:32:08.202Z,2.30
2024-02-23T05:34:36.796Z,2.60
2024-02-23T05:37:03.827Z,1.93
2024-02-23T05:39:30.736Z,3.50
2024-02-23T05:41:58.448Z,3.40
2024-02-23T05:44:25.383Z,2.30
2024-02-23T05:46:52.647Z,2.07
2024-02-23T05:49:19.737Z,2.00
2024-02-23T05:51:46.616Z,2.37
2024-02-23T05:54:13.508Z,2.50
2024-02-23T05:56:40.362Z,2.17
2024-02-23T05:59:07.771Z,2.53
2024-02-23T06:01:34.706Z,2.47
2024-02-23T06:04:01.549Z,4.20
2024-02-23T06:06:28.550Z,3.37
2024-02-23T06:08:55.526Z,1.90
2024-02-23T06:11:22.522Z,1.80
2024-02-23T06:13:49.725Z,1.73
2024-02-23T06:16:16.988Z,2.30
2024-02-23T06:18:43.846Z,1.90
2024-02-23T06:21:15.761Z,2.40
2024-02-23T06:23:43.113Z,1.90
2024-02-23T06:26:09.960Z,1.90
2024-02-23T06:28:38.336Z,1.73
2024-02-23T06:31:06.229Z,4.10
2024-02-23T06:33:33.250Z,4.23
2024-02-23T06:36:00.652Z,2.50
2024-02-23T06:38:28.074Z,1.73
2024-02-23T06:40:56.633Z,1.70
2024-02-23T06:43:23.776Z,1.75
2024-02-23T06:45:50.890Z,2.50
2024-02-23T06:48:18.259Z,4.53
2024-02-23T06:50:45.230Z,2.07
2024-02-23T06:53:12.276Z,3.07
2024-02-23T06:55:39.157Z,1.80
2024-02-23T06:58:07.666Z,3.03
2024-02-23T07:00:34.589Z,2.07
2024-02-23T07:03:04.963Z,2.10
2024-02-23T07:05:33.395Z,2.07
2024-02-23T07:08:00.567Z,2.17
2024-02-23T07:10:27.484Z,3.03
2024-02-23T07:12:55.483Z,3.33
2024-02-23T07:15:22.721Z,1.40
2024-02-23T07:17:49.955Z,3.80
2024-02-23T07:20:17.240Z,6.20
2024-02-23T07:22:47.628Z,2.30
2024-02-23T07:25:21.776Z,1.80
2024-02-23T07:27:50.261Z,4.50
2024-02-23T07:30:17.915Z,1.60
2024-02-23T07:32:47.994Z,2.20
2024-02-23T07:35:17.147Z,2.90
2024-02-23T07:37:44.048Z,2.40
2024-02-23T07:40:11.260Z,2.30
2024-02-23T07:42:38.382Z,1.80
2024-02-23T07:45:06.172Z,6.60
2024-02-23T07:47:33.271Z,3.80
2024-02-23T07:50:00.632Z,1.97
2024-02-23T07:52:27.588Z,1.90
2024-02-23T07:54:54.576Z,1.83
2024-02-23T07:57:21.796Z,1.70
2024-02-23T07:59:49.433Z,2.87
2024-02-23T08:02:16.786Z,2.70
2024-02-23T08:04:43.987Z,2.33
2024-02-23T08:07:11.124Z,2.13
2024-02-23T08:09:38.350Z,2.92
2024-02-23T08:12:05.789Z,2.00
2024-02-23T08:14:34.057Z,2.47
2024-02-23T08:17:01.295Z,2.93
2024-02-23T08:19:29.925Z,2.20
2024-02-23T08:21:58.613Z,3.50
2024-02-23T08:24:27.560Z,2.23
2024-02-23T08:26:55.047Z,3.53
2024-02-23T08:29:22.160Z,2.13
2024-02-23T08:31:50.110Z,6.83
2024-02-23T08:34:18.846Z,2.73
2024-02-23T08:36:45.849Z,4.23
2024-02-23T08:39:12.686Z,3.00
2024-02-23T08:41:40.212Z,6.27
2024-02-23T08:44:07.166Z,3.10
2024-02-23T08:46:34.045Z,2.43
2024-02-23T08:49:00.969Z,2.43
2024-02-23T08:51:28.105Z,2.50
2024-02-23T08:53:59.130Z,2.40
2024-02-23T08:56:27.707Z,2.53
2024-02-23T08:58:54.561Z,2.50
2024-02-23T09:01:21.543Z,2.13
2024-02-23T09:03:48.442Z,2.70
2024-02-23T09:06:15.514Z,2.87
2024-02-23T09:08:42.650Z,3.23
2024-02-23T09:11:09.691Z,3.13
2024-02-23T09:13:36.644Z,4.87
2024-02-23T09:16:04.052Z,3.13
2024-02-23T09:18:31.419Z,3.93
2024-02-23T09:20:58.354Z,3.40
2024-02-23T09:23:25.533Z,4.43
2024-02-23T09:25:52.677Z,3.03
2024-02-23T09:28:19.584Z,3.80
2024-02-23T09:30:46.626Z,3.03
2024-02-23T09:33:13.596Z,3.20
2024-02-23T09:35:40.826Z,4.10
2024-02-23T09:38:07.856Z,2.90
2024-02-23T09:40:34.768Z,3.30
2024-02-23T09:43:02.357Z,4.37
2024-02-23T09:45:30.275Z,4.00
2024-02-23T09:47:58.907Z,4.07
2024-02-23T09:50:26.333Z,5.47
2024-02-23T09:52:53.812Z,5.57
2024-02-23T09:55:23.018Z,5.37
2024-02-23T09:57:56.132Z,3.80
2024-02-23T10:00:24.805Z,3.07
2024-02-23T10:02:52.070Z,3.97
2024-02-23T10:05:20.162Z,4.80
2024-02-23T10:07:48.029Z,5.20
2024-02-23T10:10:15.019Z,3.77
2024-02-23T10:12:41.965Z,3.30
2024-02-23T10:15:08.918Z,3.23
2024-02-23T10:17:36.432Z,2.70
2024-02-23T10:20:07.625Z,3.53
2024-02-23T10:22:34.540Z,4.90
2024-02-23T10:25:01.375Z,4.47
2024-02-23T10:27:29.217Z,6.57
2024-02-23T10:29:56.452Z,3.20
2024-02-23T10:32:25.319Z,3.30
2024-02-23T10:34:56.761Z,3.37
2024-02-23T10:37:24.665Z,5.83
2024-02-23T10:39:56.414Z,3.60
2024-02-23T10:42:25.882Z,4.27
2024-02-23T10:44:56.248Z,4.13
2024-02-23T10:47:23.766Z,5.93
2024-02-23T10:49:50.704Z,3.50
2024-02-23T10:52:19.376Z,3.97
2024-02-23T10:54:50.166Z,4.50
2024-02-23T10:57:19.869Z,7.43
2024-02-23T10:59:50.373Z,5.27
2024-02-23T11:02:21.487Z,8.37
2024-02-23T11:04:52.784Z,4.37
2024-02-23T11:07:23.485Z,3.67
2024-02-23T11:09:54.636Z,4.23
2024-02-23T11:12:25.909Z,4.00
2024-02-23T11:14:57.369Z,7.60
2024-02-23T11:17:27.595Z,5.37
2024-02-23T11:19:56.389Z,3.43
2024-02-23T11:22:37.055Z,7.90
2024-02-23T11:25:07.079Z,8.83
2024-02-23T11:27:35.392Z,5.23
2024-02-23T11:30:09.917Z,4.13
2024-02-23T11:32:42.153Z,5.20
2024-02-23T11:35:11.399Z,5.00
2024-02-23T11:38:01.422Z,4.70
2024-02-23T11:40:32.134Z,7.23
2024-02-23T11:43:03.349Z,3.43
2024-02-23T11:45:32.221Z,6.67
2024-02-23T11:48:00.634Z,3.93
2024-02-23T11:50:27.946Z,4.83
2024-02-23T11:52:55.385Z,5.80
2024-02-23T11:55:24.194Z,4.60
2024-02-23T11:57:58.697Z,10.07
2024-02-23T12:00:32.499Z,5.40
2024-02-23T12:02:59.484Z,11.03
2024-02-23T12:05:26.567Z,4.97
2024-02-23T12:07:54.531Z,4.93
2024-02-23T12:10:21.865Z,3.90
2024-02-23T12:12:48.784Z,4.87
2024-02-23T12:15:15.725Z,5.30
2024-02-23T12:17:49.710Z,4.40
2024-02-23T12:20:17.684Z,5.60
2024-02-23T12:22:44.665Z,3.97
2024-02-23T12:25:14.467Z,5.13
2024-02-23T12:27:42.452Z,4.60
2024-02-23T12:30:15.889Z,5.27
2024-02-23T12:32:43.063Z,6.93
2024-02-23T12:35:15.972Z,7.87
2024-02-23T12:37:45.319Z,5.60
2024-02-23T12:40:13.805Z,5.50
2024-02-23T12:42:40.910Z,5.50
2024-02-23T12:45:08.496Z,8.03
2024-02-23T12:47:35.596Z,4.13
2024-02-23T12:50:02.617Z,5.43
2024-02-23T12:52:29.541Z,7.00
2024-02-23T12:54:56.425Z,5.03
2024-02-23T12:57:23.248Z,6.40
2024-02-23T12:59:50.063Z,5.03
2024-02-23T13:02:17.167Z,4.50
2024-02-23T13:04:49.842Z,7.03
2024-02-23T13:07:18.132Z,7.30
2024-02-23T13:09:45.785Z,7.20
2024-02-23T13:12:12.915Z,6.63
2024-02-23T13:14:39.901Z,11.13
2024-02-23T13:17:06.941Z,5.17
2024-02-23T13:19:36.906Z,5.40
2024-02-23T13:22:03.757Z,9.03
2024-02-23T13:24:30.551Z,8.73
2024-02-23T13:26:57.354Z,4.90
2024-02-23T13:29:24.233Z,6.90
2024-02-23T13:31:51.196Z,5.27
2024-02-23T13:34:19.370Z,5.30
2024-02-23T13:36:46.448Z,5.00
2024-02-23T13:39:13.485Z,4.90
2024-02-23T13:41:40.698Z,10.50
2024-02-23T13:44:07.751Z,5.30
2024-02-23T13:46:39.665Z,4.33
2024-02-23T13:49:11.066Z,5.73
2024-02-23T13:51:38.631Z,6.80
2024-02-23T13:54:05.624Z,7.00
2024-02-23T13:56:32.529Z,11.70
2024-02-23T13:58:59.480Z,5.20
2024-02-23T14:01:26.427Z,6.60
2024-02-23T14:03:53.624Z,9.20
2024-02-23T14:06:20.601Z,6.90
2024-02-23T14:08:49.056Z,8.97
2024-02-23T14:11:16.272Z,5.10
2024-02-23T14:13:43.465Z,6.50
2024-02-23T14:16:10.290Z,8.13
2024-02-23T14:18:39.019Z,6.03
2024-02-23T14:21:06.156Z,6.50
2024-02-23T14:23:33.170Z,5.77
2024-02-23T14:26:00.253Z,7.90
2024-02-23T14:28:27.217Z,8.57
2024-02-23T14:30:54.933Z,7.37
2024-02-23T14:33:22.246Z,7.67
2024-02-23T14:35:50.745Z,9.53
2024-02-23T14:38:19.010Z,6.90
2024-02-23T14:40:45.915Z,12.53
2024-02-23T14:43:12.893Z,15.03
2024-02-23T14:45:39.777Z,7.70
2024-02-23T14:48:07.344Z,7.27
2024-02-23T14:50:34.760Z,8.43
2024-02-23T14:53:01.955Z,8.17
2024-02-23T14:55:28.877Z,9.10
2024-02-23T14:57:55.831Z,8.73
2024-02-23T15:00:22.786Z,6.50
2024-02-23T15:02:49.825Z,8.13
2024-02-23T15:05:18.973Z,8.17
2024-02-23T15:07:46.118Z,6.50
2024-02-23T15:10:13.056Z,10.53
2024-02-23T15:12:40.117Z,6.23
2024-02-23T15:15:08.275Z,6.47
2024-02-23T15:17:35.359Z,12.40
2024-02-23T15:20:02.754Z,11.10
2024-02-23T15:22:30.732Z,7.37
2024-02-23T15:25:00.840Z,11.73
2024-02-23T15:27:27.915Z,7.87
2024-02-23T15:29:54.767Z,7.60
2024-02-23T15:32:21.741Z,6.00
2024-02-23T15:34:48.731Z,8.43
2024-02-23T15:37:15.620Z,8.60
2024-02-23T15:39:42.681Z,10.10
2024-02-23T15:42:10.059Z,11.47
2024-02-23T15:44:37.373Z,12.80
2024-02-23T15:47:04.296Z,9.60
2024-02-23T15:49:51.325Z,11.30
2024-02-23T15:52:18.124Z,9.10
2024-02-23T15:54:45.341Z,9.10
2024-02-23T15:57:12.365Z,9.17
2024-02-23T15:59:39.519Z,10.00
2024-02-23T16:02:08.093Z,9.97
2024-02-23T16:04:35.032Z,7.50
2024-02-23T16:07:01.873Z,8.73
2024-02-23T16:09:28.796Z,8.87
2024-02-23T16:11:55.859Z,9.43
2024-02-23T16:14:22.888Z,8.50
2024-02-23T16:16:49.915Z,9.40
2024-02-23T16:19:16.774Z,10.60
2024-02-23T16:21:44.419Z,14.77
2024-02-23T16:24:11.282Z,8.60
2024-02-23T16:26:40.161Z,9.83
2024-02-23T16:29:08.037Z,11.80
2024-02-23T16:31:38.171Z,10.43
2024-02-23T16:34:05.682Z,10.93
2024-02-23T16:36:32.746Z,10.37
2024-02-23T16:38:59.675Z,10.80
2024-02-23T16:41:26.820Z,12.37
2024-02-23T16:43:55.958Z,10.27
2024-02-23T16:46:22.873Z,11.97
2024-02-23T16:48:50.207Z,9.10
2024-02-23T16:51:18.228Z,10.40
2024-02-23T16:53:45.407Z,9.73
2024-02-23T16:56:12.348Z,15.33
2024-02-23T16:58:39.474Z,9.97
2024-02-23T17:01:08.664Z,15.20
2024-02-23T17:03:36.355Z,9.00
2024-02-23T17:06:05.719Z,11.53
2024-02-23T17:08:33.400Z,9.40
2024-02-23T17:11:00.532Z,11.47
2024-02-23T17:13:27.662Z,12.47
2024-02-23T17:15:55.174Z,8.90
2024-02-23T17:18:25.504Z,9.03
2024-02-23T17:20:52.746Z,8.50
2024-02-23T17:23:19.715Z,13.20
2024-02-23T17:25:46.596Z,15.23
2024-02-23T17:28:14.182Z,10.80
2024-02-23T17:30:44.125Z,12.97
2024-02-23T17:33:11.057Z,12.87
2024-02-23T17:35:37.978Z,12.27
2024-02-23T17:38:05.116Z,15.03
2024-02-23T17:40:32.267Z,13.00
2024-02-23T17:42:59.188Z,13.43
2024-02-23T17:45:26.100Z,12.63
2024-02-23T17:47:55.711Z,14.40
2024-02-23T17:50:23.371Z,12.73
2024-02-23T17:52:50.279Z,18.70
2024-02-23T17:55:17.573Z,14.87
2024-02-23T17:57:45.281Z,19.07
2024-02-23T18:00:13.299Z,13.17
2024-02-23T18:02:40.300Z,14.17
2024-02-23T18:05:08.439Z,19.70
2024-02-23T18:07:35.928Z,13.03
2024-02-23T18:10:03.734Z,10.97
2024-02-23T18:12:30.670Z,13.80
2024-02-23T18:14:57.531Z,20.53
2024-02-23T18:17:24.565Z,14.60
2024-02-23T18:19:51.814Z,12.10
2024-02-23T18:22:18.689Z,12.10
2024-02-23T18:24:45.965Z,13.70
2024-02-23T18:27:12.843Z,20.50
2024-02-23T18:29:42.269Z,14.93
2024-02-23T18:32:10.110Z,16.43
2024-02-23T18:34:37.716Z,28.40
2024-02-23T18:37:09.119Z,15.20
2024-02-23T18:39:36.504Z,16.57
2024-02-23T18:42:03.654Z,16.17
2024-02-23T18:44:30.545Z,18.90
2024-02-23T18:46:58.191Z,16.70
2024-02-23T18:49:27.407Z,19.53
2024-02-23T18:51:54.344Z,18.13
2024-02-23T18:54:21.377Z,15.57
2024-02-23T18:56:48.201Z,19.20
2024-02-23T18:59:15.100Z,18.97
2024-02-23T19:01:42.945Z,19.90
2024-02-23T19:04:09.894Z,20.83
2024-02-23T19:06:36.803Z,19.23
2024-02-23T19:09:06.006Z,22.80
2024-02-23T19:11:34.273Z,24.50
2024-02-23T19:14:01.458Z,28.20
2024-02-23T19:16:28.365Z,32.30
2024-02-23T19:18:55.642Z,34.30
2024-02-23T19:21:22.952Z,32.83
2024-02-23T19:23:49.911Z,31.27
2024-02-23T19:26:16.837Z,34.00
2024-02-23T19:28:43.935Z,31.90
2024-02-23T19:31:10.834Z,33.10
2024-02-23T19:33:37.804Z,33.30
2024-02-23T19:36:05.987Z,37.87
2024-02-23T19:38:32.935Z,42.37
2024-02-23T19:41:01.561Z,33.90
2024-02-23T19:43:31.312Z,32.17
2024-02-23T19:46:07.219Z,39.10
2024-02-23T19:48:38.332Z,33.87
2024-02-23T19:51:07.324Z,34.40
2024-02-23T19:53:35.468Z,37.83
2024-02-23T19:56:02.492Z,32.10
2024-02-23T19:58:29.387Z,36.53
2024-02-23T20:00:56.266Z,32.37
2024-02-23T20:03:23.319Z,38.43
2024-02-23T20:05:50.546Z,42.53
2024-02-23T20:08:17.543Z,35.57
2024-02-23T20:10:44.582Z,38.00
2024-02-23T20:13:11.485Z,37.93
2024-02-23T20:15:38.583Z,44.00
2024-02-23T20:18:06.181Z,39.67
2024-02-23T20:20:36.038Z,42.87
2024-02-23T20:23:03.182Z,38.30
2024-02-23T20:25:30.057Z,39.80
2024-02-23T20:27:56.919Z,42.43
2024-02-23T20:30:23.740Z,39.17
2024-02-23T20:32:50.747Z,41.90
2024-02-23T20:35:18.827Z,46.00
2024-02-23T20:37:45.773Z,46.53
2024-02-23T20:40:12.690Z,41.40
2024-02-23T20:42:40.013Z,48.73
2024-02-23T20:45:09.608Z,49.90
2024-02-23T20:47:36.810Z,46.30
2024-02-23T20:50:04.992Z,46.33
2024-02-23T20:52:31.944Z,50.23
2024-02-23T20:54:58.774Z,51.40
2024-02-23T20:57:25.614Z,47.73
2024-02-23T20:59:52.551Z,54.37
2024-02-23T21:02:25.184Z,55.40
2024-02-23T21:04:52.335Z,41.73
2024-02-23T21:07:19.847Z,45.60
2024-02-23T21:09:47.429Z,53.30
2024-02-23T21:12:15.572Z,42.63
2024-02-23T21:14:42.902Z,38.90
2024-02-23T21:17:09.838Z,41.40
2024-02-23T21:19:36.737Z,40.23
2024-02-23T21:22:04.104Z,48.37
2024-02-23T21:24:33.209Z,40.33
2024-02-23T21:27:00.099Z,38.40
2024-02-23T21:29:27.156Z,39.20
2024-02-23T21:31:54.069Z,39.43
2024-02-23T21:34:21.030Z,38.00
2024-02-23T21:36:47.838Z,41.67
2024-02-23T21:39:14.694Z,35.70
2024-02-23T21:41:41.513Z,41.60
2024-02-23T21:44:08.863Z,40.47
2024-02-23T21:46:35.758Z,37.40
2024-02-23T21:49:03.767Z,35.50
2024-02-23T21:51:30.984Z,35.97
2024-02-23T21:53:58.034Z,31.17
2024-02-23T21:56:25.169Z,38.30
2024-02-23T21:58:52.155Z,35.00
2024-02-23T22:01:22.723Z,37.43
2024-02-23T22:03:54.002Z,33.83
2024-02-23T22:06:22.112Z,31.50
2024-02-23T22:08:49.303Z,30.90
2024-02-23T22:11:16.485Z,29.53
2024-02-23T22:13:43.672Z,31.03
2024-02-23T22:16:10.632Z,35.20
2024-02-23T22:18:37.605Z,26.97
2024-02-23T22:21:04.969Z,28.03
2024-02-23T22:23:32.019Z,28.30
2024-02-23T22:25:58.851Z,24.17
2024-02-23T22:28:25.644Z,26.57
2024-02-23T22:30:52.522Z,24.93
2024-02-23T22:33:19.886Z,24.17
2024-02-23T22:35:46.877Z,23.50
2024-02-23T22:38:13.797Z,24.37
2024-02-23T22:40:40.743Z,28.87
2024-02-23T22:43:07.601Z,27.33
2024-02-23T22:45:34.508Z,26.63
2024-02-23T22:48:01.994Z,25.20
2024-02-23T22:50:28.965Z,25.13
2024-02-23T22:52:55.843Z,29.07
2024-02-23T22:55:22.678Z,33.07
2024-02-23T22:57:49.503Z,26.77
2024-02-23T23:00:16.806Z,26.57
2024-02-23T23:02:43.870Z,29.50
2024-02-23T23:05:11.988Z,29.00
2024-02-23T23:07:39.138Z,29.50
2024-02-23T23:10:06.652Z,33.00
2024-02-23T23:12:33.647Z,29.10
2024-02-23T23:15:00.656Z,32.00
2024-02-23T23:17:28.944Z,30.00
2024-02-23T23:19:55.847Z,26.70
2024-02-23T23:22:22.709Z,28.03
2024-02-23T23:24:49.508Z,33.37
2024-02-23T23:27:16.325Z,26.40
2024-02-23T23:29:43.216Z,25.33
2024-02-23T23:32:11.014Z,25.40
2024-02-23T23:34:37.967Z,25.70
2024-02-23T23:37:05.135Z,22.23
2024-02-23T23:39:32.000Z,32.63
2024-02-23T23:41:58.829Z,34.20
2024-02-23T23:44:25.738Z,28.60
2024-02-23T23:46:52.581Z,32.27
2024-02-23T23:49:19.416Z,34.67
2024-02-23T23:51:53.199Z,33.27
2024-02-23T23:54:27.626Z,30.23
2024-02-23T23:56:54.435Z,28.97
2024-02-23T23:59:21.304Z,33.33
